FNUB

Lubango Airport

Lubango, Angola
TAF FNUB 182300Z 1900/1912 32008KT 9999 FEW025 BECMG 1910/1912 01005KT FEW020 SCT025
Issued Valid From Valid To
Jan-18 @ 23:00 UTC
(3 hours ago)
Jan-19 @ 00:00 UTC
(2 hours ago)
Jan-19 @ 12:00 UTC
(in 10 hours)
Jan-19 @ 00:00 to Jan-19 @ 10:00
TAF FNUB 182300Z 1900/1912 32008KT 9999 FEW025
Wind Visibility Clouds
320° at 8 knots 10,000+ meters
  • Few at 2,500' AGL
Becoming Jan-19 @ 10:00 to Jan-19 @ 12:00
BECMG 1910/1912 01005KT FEW020 SCT025
Wind Visibility Clouds
10° at 5 knots 10,000+ meters
  • Few at 2,000' AGL
  • Scattered at 2,500' AGL
TAF FNUB 182300Z 1900/1912 32008KT 9999 FEW025 BECMG 1910/1912 01005KT FEW020 SCT025
Issued Jan-18 @ 23:00 UTC
(3 hours ago)
Valid From Jan-19 @ 00:00 UTC
(2 hours ago)
Valid To Jan-19 @ 12:00 UTC
(in 10 hours)
Jan-19 @ 00:00 - Jan-19 @ 10:00
Wind Visibility
320° at 8 knots 10,000+ meters
Clouds
  • Few at 2,500' AGL
Becoming Jan-19 @ 10:00 - Jan-19 @ 12:00
Wind Visibility
10° at 5 knots 10,000+ meters
Clouds
  • Few at 2,000' AGL
  • Scattered at 2,500' AGL